CSCL Dalian — VRBH4 — position and weather

sailwx.info

Track history (hours):
 
Tides and Currents Weather Stations Pressure Air Temp Water Temp Dewpoint Dewpoint Depression Visibility Wind Speed Wind Dir Waves Ship Positions

CSCL Dalian

Last reported at 2015-Jul-30 13:32 UTC. Time now 2015-Jul-30 14:12 UTC.
Position N 44°25' E 008°47'.

Length 259.8 m; ; draft 11 m.

Type: Cargo ship. MMSI: 477014600.

Date/timePositionNaut miles runAvg speedWind from/ knotsBaromVisibWave heightAir tempDewpointWater temp
2015-Jul-30 13:32N 44°25' E 008°47'0 0.0
2015-Jul-30 12:32N 44°25' E 008°47'0 0.0
2015-Jul-30 11:32N 44°25' E 008°47'0 0.0
2015-Jul-30 10:32N 44°25' E 008°47'0 0.0
2015-Jul-30 09:32N 44°25' E 008°47'0 0.0
2015-Jul-30 08:32N 44°25' E 008°47'0 0.0
2015-Jul-30 07:29N 44°25' E 008°47'0 0.0
2015-Jul-30 06:32N 44°25' E 008°47'0 0.0
2015-Jul-30 05:29N 44°25' E 008°47'0 0.0
2015-Jul-30 04:32N 44°25' E 008°47'0 0.0
2015-Jul-30 03:32N 44°25' E 008°47'0 0.0
2015-Jul-30 02:32N 44°25' E 008°47'0 0.0
2015-Jul-30 01:32N 44°25' E 008°47'0 0.0
2015-Jul-30 00:32N 44°25' E 008°47'0 0.0
2015-Jul-29 23:32N 44°25' E 008°47'0 0.0
2015-Jul-29 22:32N 44°25' E 008°47'0 0.0
2015-Jul-29 21:32N 44°25' E 008°47'0 0.0
2015-Jul-29 20:32N 44°25' E 008°47'0 0.0
2015-Jul-29 19:32N 44°25' E 008°47'0 0.0
2015-Jul-29 18:32N 44°25' E 008°47'0 0.0
2015-Jul-29 17:32N 44°25' E 008°47'0 0.0
2015-Jul-29 16:33N 44°25' E 008°47'3 2.7
2015-Jul-29 15:33N 44°24' E 008°44'3 3.5
2015-Jul-29 14:33N 44°20' E 008°43'1 1.2
2015-Jul-29 13:33N 44°20' E 008°44'3 2.5
2015-Jul-29 12:33N 44°18' E 008°46'1111.1
2015-Jul-29 11:33N 44°10' E 008°57'1111.1
2015-Jul-29 10:33N 44°01' E 009°07'1110.7
2015-Jul-29 09:33N 43°54' E 009°17'1110.6
2015-Jul-29 08:33N 43°46' E 009°27'10 9.9
2015-Jul-29 07:33N 43°39' E 009°37'10 9.8
2015-Jul-29 06:33N 43°33' E 009°48'9 9.2
2015-Jul-29 05:33N 43°30' E 009°60'1010.3
2015-Jul-29 04:33N 43°32' E 010°14'4 4.2
2015-Jul-29 03:32N 43°34' E 010°18'0 0.0
2015-Jul-29 02:32N 43°34' E 010°18'0 0.0
2015-Jul-29 01:32N 43°34' E 010°18'0 0.0
2015-Jul-29 00:32N 43°34' E 010°18'0 0.0
2015-Jul-28 23:32N 43°34' E 010°18'0 0.0
2015-Jul-28 22:32N 43°34' E 010°18'0 0.0
2015-Jul-28 21:32N 43°34' E 010°18'0 0.0
2015-Jul-28 20:32N 43°34' E 010°18'0 0.0
2015-Jul-28 19:32N 43°34' E 010°18'0 0.0
2015-Jul-28 18:32N 43°34' E 010°18'0 0.0
2015-Jul-28 17:32N 43°34' E 010°18'0 0.0
2015-Jul-28 16:29N 43°34' E 010°18'0 0.0
2015-Jul-28 15:32N 43°34' E 010°18'0 0.0
2015-Jul-28 14:32N 43°34' E 010°18'0 0.0
2015-Jul-28 13:32N 43°34' E 010°18'0 0.0
2015-Jul-28 12:32N 43°34' E 010°18'0 0.0
2015-Jul-28 11:32N 43°34' E 010°18'0 0.0
2015-Jul-28 10:32N 43°34' E 010°18'0 0.0
2015-Jul-28 09:29N 43°34' E 010°18'0 0.0
2015-Jul-28 08:26N 43°34' E 010°18'0 0.0
2015-Jul-28 07:23N 43°34' E 010°18'2 2.5
2015-Jul-28 06:34N 43°32' E 010°17'4 4.2
2015-Jul-28 05:33N 43°29' E 010°13'1110.9
2015-Jul-28 04:33N 43°19' E 010°09'1312.8
2015-Jul-28 03:33N 43°07' E 010°04'2612.9
2015-Jul-28 01:33N 42°42' E 009°54'1413.7
2015-Jul-28 00:33N 42°28' E 009°50'12413.7
2015-Jul-27 15:30N 40°25' E 009°60'2714.0
2015-Jul-27 13:33N 39°58' E 010°01'1413.7
2015-Jul-27 12:33N 39°45' E 009°56'2813.7
2015-Jul-27 10:29N 39°17' E 009°46'1414.3
2015-Jul-27 09:32N 39°04' E 009°41'1110.5
2015-Jul-27 08:30N 39°00' E 009°28'1111.4
2015-Jul-27 07:33N 39°04' E 009°15'9 9.2
2015-Jul-27 06:33N 39°10' E 009°06'3 3.0
2015-Jul-27 05:33N 39°13' E 009°04'0 0.0
2015-Jul-27 04:33N 39°13' E 009°04'0 0.0
2015-Jul-27 03:33N 39°13' E 009°04'0 0.0
2015-Jul-27 02:33N 39°13' E 009°04'0 0.0
2015-Jul-27 01:33N 39°13' E 009°04'0 0.0
2015-Jul-27 00:33N 39°13' E 009°04'0 0.0
2015-Jul-26 23:33N 39°13' E 009°04'0 0.0
2015-Jul-26 22:33N 39°13' E 009°04'0 0.0
2015-Jul-26 21:33N 39°13' E 009°04'0 0.0
2015-Jul-26 20:33N 39°13' E 009°04'0 0.0
2015-Jul-26 19:33N 39°13' E 009°04'0 0.0
2015-Jul-26 18:33N 39°13' E 009°04'0 0.0
2015-Jul-26 17:33N 39°13' E 009°04'0 0.0
2015-Jul-26 16:33N 39°13' E 009°04'5 5.3
2015-Jul-26 15:33N 39°08' E 009°07'1514.5
2015-Jul-26 14:33N 38°53' E 009°04'1717.3
2015-Jul-26 13:32N 38°39' E 008°51'27418.2
2015-Jul-25 22:32N 38°57' E 003°00'1917.8
2015-Jul-25 21:29N 39°02' E 002°37'2017.9
2015-Jul-25 20:22N 39°07' E 002°13'1417.8
2015-Jul-25 19:33N 39°11' E 001°55'1817.6
2015-Jul-25 18:30N 39°18' E 001°32'8617.4
2015-Jul-25 13:33N 39°26' W 000°19'1 0.9
2015-Jul-25 12:31N 39°27' W 000°19'0 0.0
2015-Jul-25 11:31N 39°27' W 000°19'0 0.0
2015-Jul-25 10:31N 39°27' W 000°19'0 0.0
2015-Jul-25 09:31N 39°27' W 000°19'0 0.0
2015-Jul-25 08:31N 39°27' W 000°19'0 0.0
2015-Jul-25 07:31N 39°27' W 000°19'0 0.0
2015-Jul-25 06:31N 39°27' W 000°19'0 0.0
2015-Jul-25 05:19N 39°27' W 000°19'0 0.0
2015-Jul-25 04:31N 39°27' W 000°19'0 0.0
2015-Jul-25 03:31N 39°27' W 000°19'0 0.0
2015-Jul-25 02:31N 39°27' W 000°19'0 0.0
2015-Jul-25 01:31N 39°27' W 000°19'0 0.0
2015-Jul-25 00:31N 39°27' W 000°19'0 0.0
2015-Jul-24 23:31N 39°27' W 000°19'0 0.0
2015-Jul-24 22:31N 39°27' W 000°19'0 0.0
2015-Jul-24 21:31N 39°27' W 000°19'0 0.0
2015-Jul-24 20:31N 39°27' W 000°19'0 0.0
2015-Jul-24 19:31N 39°27' W 000°19'0 0.0
2015-Jul-24 18:31N 39°27' W 000°19'0 0.0
2015-Jul-24 17:28N 39°27' W 000°19'0 0.0
2015-Jul-24 16:31N 39°27' W 000°19'0 0.0
2015-Jul-24 15:31N 39°27' W 000°19'0 0.0
2015-Jul-24 14:31N 39°27' W 000°19'0 0.0
2015-Jul-24 13:31N 39°27' W 000°19'0 0.0
2015-Jul-24 12:31N 39°27' W 000°19'0 0.0
2015-Jul-24 11:31N 39°27' W 000°19'3 3.3
2015-Jul-24 10:33N 39°25' W 000°16'1211.9
2015-Jul-24 09:33N 39°18' W 000°03'1515.4
2015-Jul-24 08:33N 39°06' E 000°10'1716.6
2015-Jul-24 07:33N 38°52' E 000°22'1616.3
2015-Jul-24 06:33N 38°36' E 000°24'1817.9
2015-Jul-24 05:33N 38°22' E 000°11'1817.7
2015-Jul-24 04:33N 38°07' W 000°01'1817.6
2015-Jul-24 03:33N 37°52' W 000°12'1817.4
2015-Jul-24 02:33N 37°38' W 000°26'1717.5
2015-Jul-24 01:33N 37°25' W 000°40'1817.3
2015-Jul-24 00:30N 37°12' W 000°57'2417.3
2015-Jul-23 23:05N 36°56' W 001°20'917.3
2015-Jul-23 22:33N 36°50' W 001°29'1917.5
2015-Jul-23 21:26N 36°37' W 001°47'3316.6
2015-Jul-23 19:26N 36°20' W 002°22'236 9.1
2015-Jul-22 17:33N 36°07' W 007°15'6315.8
2015-Jul-22 13:33N 36°24' W 008°30'2216.4
2015-Jul-22 12:13N 36°30' W 008°56'1116.5
2015-Jul-22 11:33N 36°33' W 009°09'2215.3
2015-Jul-22 10:06N 36°46' W 009°31'1114.6
2015-Jul-22 09:20N 36°57' W 009°36'1114.0
2015-Jul-22 08:32N 37°08' W 009°36'1111.3
2015-Jul-22 07:33N 37°19' W 009°34'1111.3
2015-Jul-22 06:33N 37°30' W 009°33'1110.8
2015-Jul-22 05:33N 37°41' W 009°32'1111.3
2015-Jul-22 04:33N 37°52' W 009°29'1211.8
2015-Jul-22 03:33N 38°04' W 009°27'1111.3
2015-Jul-22 02:33N 38°15' W 009°26'1111.3
2015-Jul-22 01:33N 38°26' W 009°25'1111.0
2015-Jul-22 00:33N 38°37' W 009°23'1111.3
2015-Jul-21 23:33N 38°42' W 009°10'0 0.2
2015-Jul-21 22:29N 38°42' W 009°10'0 0.0
2015-Jul-21 21:32N 38°42' W 009°10'0 0.0
2015-Jul-21 20:32N 38°42' W 009°10'0 0.0
2015-Jul-21 19:14N 38°42' W 009°10'0 0.0
2015-Jul-21 18:32N 38°42' W 009°10'0 0.0
2015-Jul-21 17:23N 38°42' W 009°10'0 0.0
2015-Jul-21 16:32N 38°42' W 009°10'0 0.0
2015-Jul-21 15:33N 38°42' W 009°10'8 8.1
2015-Jul-21 14:33N 38°39' W 009°20'7 7.0
2015-Jul-21 13:33N 38°39' W 009°29'1413.7
2015-Jul-21 12:32N 38°35' W 009°46'1717.4
2015-Jul-21 11:33N 38°31' W 010°07'1717.6
2015-Jul-21 10:33N 38°29' W 010°30'1817.6
2015-Jul-21 09:33N 38°27' W 010°52'1717.4
2015-Jul-21 08:33N 38°25' W 011°14'1717.2
2015-Jul-21 07:33N 38°24' W 011°36'1717.2
2015-Jul-21 06:33N 38°21' W 011°58'1916.7
2015-Jul-21 05:24N 38°19' W 012°22'  
Track history (hours):
 
Tides and Currents Weather Stations Pressure Air Temp Water Temp Dewpoint Dewpoint Depression Visibility Wind Speed Wind Dir Waves Ship Positions

CSCL Dalian

Last reported at 2015-Jul-30 13:32 UTC. Time now 2015-Jul-30 14:12 UTC.
Position N 44°25' E 008°47'.

Length 259.8 m; ; draft 11 m.

Type: Cargo ship. MMSI: 477014600.

Date/timePositionNaut miles runAvg speedWind from/ knotsBaromVisibWave heightAir tempDewpointWater temp
2015-Jul-30 13:32N 44°25' E 008°47'0 0.0
2015-Jul-30 12:32N 44°25' E 008°47'0 0.0
2015-Jul-30 11:32N 44°25' E 008°47'0 0.0
2015-Jul-30 10:32N 44°25' E 008°47'0 0.0
2015-Jul-30 09:32N 44°25' E 008°47'0 0.0
2015-Jul-30 08:32N 44°25' E 008°47'0 0.0
2015-Jul-30 07:29N 44°25' E 008°47'0 0.0
2015-Jul-30 06:32N 44°25' E 008°47'0 0.0
2015-Jul-30 05:29N 44°25' E 008°47'0 0.0
2015-Jul-30 04:32N 44°25' E 008°47'0 0.0
2015-Jul-30 03:32N 44°25' E 008°47'0 0.0
2015-Jul-30 02:32N 44°25' E 008°47'0 0.0
2015-Jul-30 01:32N 44°25' E 008°47'0 0.0
2015-Jul-30 00:32N 44°25' E 008°47'0 0.0
2015-Jul-29 23:32N 44°25' E 008°47'0 0.0
2015-Jul-29 22:32N 44°25' E 008°47'0 0.0
2015-Jul-29 21:32N 44°25' E 008°47'0 0.0
2015-Jul-29 20:32N 44°25' E 008°47'0 0.0
2015-Jul-29 19:32N 44°25' E 008°47'0 0.0
2015-Jul-29 18:32N 44°25' E 008°47'0 0.0
2015-Jul-29 17:32N 44°25' E 008°47'0 0.0
2015-Jul-29 16:33N 44°25' E 008°47'3 2.7
2015-Jul-29 15:33N 44°24' E 008°44'3 3.5
2015-Jul-29 14:33N 44°20' E 008°43'1 1.2
2015-Jul-29 13:33N 44°20' E 008°44'3 2.5
2015-Jul-29 12:33N 44°18' E 008°46'1111.1
2015-Jul-29 11:33N 44°10' E 008°57'1111.1
2015-Jul-29 10:33N 44°01' E 009°07'1110.7
2015-Jul-29 09:33N 43°54' E 009°17'1110.6
2015-Jul-29 08:33N 43°46' E 009°27'10 9.9
2015-Jul-29 07:33N 43°39' E 009°37'10 9.8
2015-Jul-29 06:33N 43°33' E 009°48'9 9.2
2015-Jul-29 05:33N 43°30' E 009°60'1010.3
2015-Jul-29 04:33N 43°32' E 010°14'4 4.2
2015-Jul-29 03:32N 43°34' E 010°18'0 0.0
2015-Jul-29 02:32N 43°34' E 010°18'0 0.0
2015-Jul-29 01:32N 43°34' E 010°18'0 0.0
2015-Jul-29 00:32N 43°34' E 010°18'0 0.0
2015-Jul-28 23:32N 43°34' E 010°18'0 0.0
2015-Jul-28 22:32N 43°34' E 010°18'0 0.0
2015-Jul-28 21:32N 43°34' E 010°18'0 0.0
2015-Jul-28 20:32N 43°34' E 010°18'0 0.0
2015-Jul-28 19:32N 43°34' E 010°18'0 0.0
2015-Jul-28 18:32N 43°34' E 010°18'0 0.0
2015-Jul-28 17:32N 43°34' E 010°18'0 0.0
2015-Jul-28 16:29N 43°34' E 010°18'0 0.0
2015-Jul-28 15:32N 43°34' E 010°18'0 0.0
2015-Jul-28 14:32N 43°34' E 010°18'0 0.0
2015-Jul-28 13:32N 43°34' E 010°18'0 0.0
2015-Jul-28 12:32N 43°34' E 010°18'0 0.0
2015-Jul-28 11:32N 43°34' E 010°18'0 0.0
2015-Jul-28 10:32N 43°34' E 010°18'0 0.0
2015-Jul-28 09:29N 43°34' E 010°18'0 0.0
2015-Jul-28 08:26N 43°34' E 010°18'0 0.0
2015-Jul-28 07:23N 43°34' E 010°18'2 2.5
2015-Jul-28 06:34N 43°32' E 010°17'4 4.2
2015-Jul-28 05:33N 43°29' E 010°13'1110.9
2015-Jul-28 04:33N 43°19' E 010°09'1312.8
2015-Jul-28 03:33N 43°07' E 010°04'2612.9
2015-Jul-28 01:33N 42°42' E 009°54'1413.7
2015-Jul-28 00:33N 42°28' E 009°50'12413.7
2015-Jul-27 15:30N 40°25' E 009°60'2714.0
2015-Jul-27 13:33N 39°58' E 010°01'1413.7
2015-Jul-27 12:33N 39°45' E 009°56'2813.7
2015-Jul-27 10:29N 39°17' E 009°46'1414.3
2015-Jul-27 09:32N 39°04' E 009°41'1110.5
2015-Jul-27 08:30N 39°00' E 009°28'1111.4
2015-Jul-27 07:33N 39°04' E 009°15'9 9.2
2015-Jul-27 06:33N 39°10' E 009°06'3 3.0
2015-Jul-27 05:33N 39°13' E 009°04'0 0.0
2015-Jul-27 04:33N 39°13' E 009°04'0 0.0
2015-Jul-27 03:33N 39°13' E 009°04'0 0.0
2015-Jul-27 02:33N 39°13' E 009°04'0 0.0
2015-Jul-27 01:33N 39°13' E 009°04'0 0.0
2015-Jul-27 00:33N 39°13' E 009°04'0 0.0
2015-Jul-26 23:33N 39°13' E 009°04'0 0.0
2015-Jul-26 22:33N 39°13' E 009°04'0 0.0
2015-Jul-26 21:33N 39°13' E 009°04'0 0.0
2015-Jul-26 20:33N 39°13' E 009°04'0 0.0
2015-Jul-26 19:33N 39°13' E 009°04'0 0.0
2015-Jul-26 18:33N 39°13' E 009°04'0 0.0
2015-Jul-26 17:33N 39°13' E 009°04'0 0.0
2015-Jul-26 16:33N 39°13' E 009°04'5 5.3
2015-Jul-26 15:33N 39°08' E 009°07'1514.5
2015-Jul-26 14:33N 38°53' E 009°04'1717.3
2015-Jul-26 13:32N 38°39' E 008°51'27418.2
2015-Jul-25 22:32N 38°57' E 003°00'1917.8
2015-Jul-25 21:29N 39°02' E 002°37'2017.9
2015-Jul-25 20:22N 39°07' E 002°13'1417.8
2015-Jul-25 19:33N 39°11' E 001°55'1817.6
2015-Jul-25 18:30N 39°18' E 001°32'8617.4
2015-Jul-25 13:33N 39°26' W 000°19'1 0.9
2015-Jul-25 12:31N 39°27' W 000°19'0 0.0
2015-Jul-25 11:31N 39°27' W 000°19'0 0.0
2015-Jul-25 10:31N 39°27' W 000°19'0 0.0
2015-Jul-25 09:31N 39°27' W 000°19'0 0.0
2015-Jul-25 08:31N 39°27' W 000°19'0 0.0
2015-Jul-25 07:31N 39°27' W 000°19'0 0.0
2015-Jul-25 06:31N 39°27' W 000°19'0 0.0
2015-Jul-25 05:19N 39°27' W 000°19'0 0.0
2015-Jul-25 04:31N 39°27' W 000°19'0 0.0
2015-Jul-25 03:31N 39°27' W 000°19'0 0.0
2015-Jul-25 02:31N 39°27' W 000°19'0 0.0
2015-Jul-25 01:31N 39°27' W 000°19'0 0.0
2015-Jul-25 00:31N 39°27' W 000°19'0 0.0
2015-Jul-24 23:31N 39°27' W 000°19'0 0.0
2015-Jul-24 22:31N 39°27' W 000°19'0 0.0
2015-Jul-24 21:31N 39°27' W 000°19'0 0.0
2015-Jul-24 20:31N 39°27' W 000°19'0 0.0
2015-Jul-24 19:31N 39°27' W 000°19'0 0.0
2015-Jul-24 18:31N 39°27' W 000°19'0 0.0
2015-Jul-24 17:28N 39°27' W 000°19'0 0.0
2015-Jul-24 16:31N 39°27' W 000°19'0 0.0
2015-Jul-24 15:31N 39°27' W 000°19'0 0.0
2015-Jul-24 14:31N 39°27' W 000°19'0 0.0
2015-Jul-24 13:31N 39°27' W 000°19'0 0.0
2015-Jul-24 12:31N 39°27' W 000°19'0 0.0
2015-Jul-24 11:31N 39°27' W 000°19'3 3.3
2015-Jul-24 10:33N 39°25' W 000°16'1211.9
2015-Jul-24 09:33N 39°18' W 000°03'1515.4
2015-Jul-24 08:33N 39°06' E 000°10'1716.6
2015-Jul-24 07:33N 38°52' E 000°22'1616.3
2015-Jul-24 06:33N 38°36' E 000°24'1817.9
2015-Jul-24 05:33N 38°22' E 000°11'1817.7
2015-Jul-24 04:33N 38°07' W 000°01'1817.6
2015-Jul-24 03:33N 37°52' W 000°12'1817.4
2015-Jul-24 02:33N 37°38' W 000°26'1717.5
2015-Jul-24 01:33N 37°25' W 000°40'1817.3
2015-Jul-24 00:30N 37°12' W 000°57'2417.3
2015-Jul-23 23:05N 36°56' W 001°20'917.3
2015-Jul-23 22:33N 36°50' W 001°29'1917.5
2015-Jul-23 21:26N 36°37' W 001°47'3316.6
2015-Jul-23 19:26N 36°20' W 002°22'236 9.1
2015-Jul-22 17:33N 36°07' W 007°15'6315.8
2015-Jul-22 13:33N 36°24' W 008°30'2216.4
2015-Jul-22 12:13N 36°30' W 008°56'1116.5
2015-Jul-22 11:33N 36°33' W 009°09'2215.3
2015-Jul-22 10:06N 36°46' W 009°31'1114.6
2015-Jul-22 09:20N 36°57' W 009°36'1114.0
2015-Jul-22 08:32N 37°08' W 009°36'1111.3
2015-Jul-22 07:33N 37°19' W 009°34'1111.3
2015-Jul-22 06:33N 37°30' W 009°33'1110.8
2015-Jul-22 05:33N 37°41' W 009°32'1111.3
2015-Jul-22 04:33N 37°52' W 009°29'1211.8
2015-Jul-22 03:33N 38°04' W 009°27'1111.3
2015-Jul-22 02:33N 38°15' W 009°26'1111.3
2015-Jul-22 01:33N 38°26' W 009°25'1111.0
2015-Jul-22 00:33N 38°37' W 009°23'1111.3
2015-Jul-21 23:33N 38°42' W 009°10'0 0.2
2015-Jul-21 22:29N 38°42' W 009°10'0 0.0
2015-Jul-21 21:32N 38°42' W 009°10'0 0.0
2015-Jul-21 20:32N 38°42' W 009°10'0 0.0
2015-Jul-21 19:14N 38°42' W 009°10'0 0.0
2015-Jul-21 18:32N 38°42' W 009°10'0 0.0
2015-Jul-21 17:23N 38°42' W 009°10'0 0.0
2015-Jul-21 16:32N 38°42' W 009°10'0 0.0
2015-Jul-21 15:33N 38°42' W 009°10'8 8.1
2015-Jul-21 14:33N 38°39' W 009°20'7 7.0
2015-Jul-21 13:33N 38°39' W 009°29'1413.7
2015-Jul-21 12:32N 38°35' W 009°46'1717.4
2015-Jul-21 11:33N 38°31' W 010°07'1717.6
2015-Jul-21 10:33N 38°29' W 010°30'1817.6
2015-Jul-21 09:33N 38°27' W 010°52'1717.4
2015-Jul-21 08:33N 38°25' W 011°14'1717.2
2015-Jul-21 07:33N 38°24' W 011°36'1717.2
2015-Jul-21 06:33N 38°21' W 011°58'1916.7
2015-Jul-21 05:24N 38°19' W 012°22'  

Dump ship's entire track history